Time,TemperatureF,DewpointF,PressureIn,WindDirection,WindDirectionDegrees,WindSpeedMPH,WindSpeedGustMPH,Humidity,HourlyPrecipIn,Conditions,Clouds,dailyrainin,SoftwareType,DateUTC
2013-01-07 00:02:00,28.0,10.0,29.89,North,0,0.0,-999.0,46,-99.99,,,-99.99,,2013-01-07 07:02:00,
2013-01-07 00:11:00,27.0,10.0,29.89,SSW,210,6.0,-999.0,49,-99.99,,,-99.99,,2013-01-07 07:11:00,
2013-01-07 00:22:00,27.0,10.0,29.89,SSW,210,6.0,-999.0,49,-99.99,,,-99.99,,2013-01-07 07:22:00,
2013-01-07 00:32:00,25.0,10.0,29.89,North,0,0.0,-999.0,53,-99.99,,,-99.99,,2013-01-07 07:32:00,
2013-01-07 00:42:00,25.0,10.0,29.89,North,0,0.0,-999.0,53,-99.99,,,-99.99,,2013-01-07 07:42:00,
2013-01-07 00:52:00,27.0,10.0,29.89,SSW,210,5.0,-999.0,49,-99.99,,,-99.99,,2013-01-07 07:52:00,
2013-01-07 01:02:00,27.0,10.0,29.89,SSW,210,5.0,-999.0,49,-99.99,,,-99.99,,2013-01-07 08:02:00,
2013-01-07 01:11:00,27.0,10.0,29.89,SSW,210,5.0,-999.0,49,-99.99,,,-99.99,,2013-01-07 08:11:00,
2013-01-07 01:22:00,27.0,10.0,29.89,SSW,210,5.0,-999.0,49,-99.99,,,-99.99,,2013-01-07 08:22:00,
2013-01-07 01:32:00,28.0,12.0,29.89,North,0,0.0,-999.0,50,-99.99,,,-99.99,,2013-01-07 08:32:00,
2013-01-07 01:43:00,28.0,12.0,29.89,North,0,0.0,-999.0,50,-99.99,,,-99.99,,2013-01-07 08:43:00,
2013-01-07 01:53:00,27.0,10.0,29.89,North,0,0.0,-999.0,49,-99.99,,,-99.99,,2013-01-07 08:53:00,
2013-01-07 02:02:00,27.0,10.0,29.89,North,0,0.0,-999.0,49,-99.99,,,-99.99,,2013-01-07 09:02:00,
2013-01-07 02:12:00,27.0,12.0,29.89,SSW,210,7.0,-999.0,54,-99.99,,,-99.99,,2013-01-07 09:12:00,
2013-01-07 02:22:00,27.0,12.0,29.89,SSW,210,7.0,-999.0,54,-99.99,,,-99.99,,2013-01-07 09:22:00,
2013-01-07 02:32:00,25.0,10.0,29.89,SSW,210,6.0,-999.0,53,-99.99,,,-99.99,,2013-01-07 09:32:00,
2013-01-07 02:42:00,25.0,10.0,29.89,SSW,210,6.0,-999.0,53,-99.99,,,-99.99,,2013-01-07 09:42:00,
2013-01-07 02:52:00,25.0,12.0,29.89,SSW,210,6.0,-999.0,58,-99.99,,,-99.99,,2013-01-07 09:52:00,
2013-01-07 03:02:00,25.0,12.0,29.89,SSW,210,6.0,-999.0,58,-99.99,,,-99.99,,2013-01-07 10:02:00,
2013-01-07 03:11:00,25.0,12.0,29.89,SSW,210,6.0,-999.0,58,-99.99,,,-99.99,,2013-01-07 10:11:00,
2013-01-07 03:22:00,25.0,12.0,29.89,SSW,210,6.0,-999.0,58,-99.99,,,-99.99,,2013-01-07 10:22:00,
2013-01-07 03:32:00,25.0,12.0,29.87,SSW,210,9.0,-999.0,58,-99.99,,,-99.99,,2013-01-07 10:32:00,
2013-01-07 03:42:00,25.0,12.0,29.87,SSW,210,9.0,-999.0,58,-99.99,,,-99.99,,2013-01-07 10:42:00,
2013-01-07 03:52:00,25.0,12.0,29.87,SSW,200,10.0,-999.0,58,-99.99,,,-99.99,,2013-01-07 10:52:00,
2013-01-07 04:02:00,25.0,12.0,29.87,SSW,200,10.0,-999.0,58,-99.99,,,-99.99,,2013-01-07 11:02:00,
2013-01-07 04:11:00,25.0,12.0,29.87,SSW,200,10.0,-999.0,58,-99.99,,,-99.99,,2013-01-07 11:11:00,
2013-01-07 04:22:00,25.0,12.0,29.87,SSW,200,10.0,-999.0,58,-99.99,,,-99.99,,2013-01-07 11:22:00,
2013-01-07 04:32:00,27.0,12.0,29.87,SSW,200,10.0,15.0,54,-99.99,,,-99.99,,2013-01-07 11:32:00,
2013-01-07 04:43:00,27.0,12.0,29.87,SSW,200,10.0,15.0,54,-99.99,,,-99.99,,2013-01-07 11:43:00,
2013-01-07 04:53:00,28.0,12.0,29.88,SSW,200,13.0,20.0,50,-99.99,,,-99.99,,2013-01-07 11:53:00,
2013-01-07 05:02:00,28.0,12.0,29.88,SSW,200,13.0,20.0,50,-99.99,,,-99.99,,2013-01-07 12:02:00,
2013-01-07 05:12:00,27.0,12.0,29.88,SSW,200,12.0,20.0,54,-99.99,,,-99.99,,2013-01-07 12:12:00,
2013-01-07 05:22:00,27.0,12.0,29.88,SSW,200,12.0,20.0,54,-99.99,,,-99.99,,2013-01-07 12:22:00,
2013-01-07 05:32:00,25.0,12.0,29.88,SSW,200,10.0,15.0,58,-99.99,,,-99.99,,2013-01-07 12:32:00,
2013-01-07 05:43:00,25.0,12.0,29.88,SSW,200,10.0,15.0,58,-99.99,,,-99.99,,2013-01-07 12:43:00,
2013-01-07 05:52:00,25.0,12.0,29.88,SSW,200,12.0,16.0,58,-99.99,,,-99.99,,2013-01-07 12:52:00,
2013-01-07 06:02:00,25.0,12.0,29.88,SSW,200,12.0,16.0,58,-99.99,,,-99.99,,2013-01-07 13:02:00,
2013-01-07 06:12:00,25.0,12.0,29.88,North,0,0.0,-999.0,58,-99.99,,,-99.99,,2013-01-07 13:12:00,
2013-01-07 06:22:00,25.0,12.0,29.88,North,0,0.0,-999.0,58,-99.99,,,-99.99,,2013-01-07 13:22:00,
2013-01-07 06:32:00,25.0,12.0,29.88,SSW,200,5.0,-999.0,58,-99.99,,,-99.99,,2013-01-07 13:32:00,
2013-01-07 06:42:00,25.0,12.0,29.88,SSW,200,5.0,-999.0,58,-99.99,,,-99.99,,2013-01-07 13:42:00,
2013-01-07 06:52:00,25.0,12.0,29.89,North,0,0.0,-999.0,58,-99.99,,,-99.99,,2013-01-07 13:52:00,
2013-01-07 07:02:00,25.0,12.0,29.89,North,0,0.0,-999.0,58,-99.99,,,-99.99,,2013-01-07 14:02:00,
2013-01-07 07:12:00,25.0,12.0,29.89,North,0,0.0,-999.0,58,-99.99,,,-99.99,,2013-01-07 14:12:00,
2013-01-07 07:22:00,25.0,12.0,29.89,North,0,0.0,-999.0,58,-99.99,,,-99.99,,2013-01-07 14:22:00,
2013-01-07 07:32:00,25.0,12.0,29.88,North,0,0.0,-999.0,58,-99.99,,,-99.99,,2013-01-07 14:32:00,
2013-01-07 07:43:00,25.0,12.0,29.88,North,0,0.0,-999.0,58,-99.99,,,-99.99,,2013-01-07 14:43:00,
2013-01-07 07:53:00,25.0,10.0,29.88,SSW,200,6.0,-999.0,53,-99.99,,,-99.99,,2013-01-07 14:53:00,
2013-01-07 08:02:00,25.0,10.0,29.88,SSW,200,6.0,-999.0,53,-99.99,,,-99.99,,2013-01-07 15:02:00,
2013-01-07 08:11:00,25.0,12.0,29.89,SSW,200,5.0,-999.0,58,-99.99,,,-99.99,,2013-01-07 15:11:00,
2013-01-07 08:22:00,25.0,12.0,29.89,SSW,200,5.0,-999.0,58,-99.99,,,-99.99,,2013-01-07 15:22:00,
2013-01-07 08:33:00,25.0,12.0,29.89,North,0,0.0,-999.0,58,-99.99,,,-99.99,,2013-01-07 15:33:00,
2013-01-07 08:42:00,25.0,12.0,29.89,North,0,0.0,-999.0,58,-99.99,,,-99.99,,2013-01-07 15:42:00,
2013-01-07 08:52:00,23.0,10.0,29.89,SSW,200,5.0,-999.0,57,-99.99,,,-99.99,,2013-01-07 15:52:00,
2013-01-07 09:02:00,23.0,10.0,29.89,SSW,200,5.0,-999.0,57,-99.99,,,-99.99,,2013-01-07 16:02:00,
2013-01-07 09:12:00,27.0,12.0,29.89,SSW,200,6.0,-999.0,54,-99.99,,,-99.99,,2013-01-07 16:12:00,
2013-01-07 09:22:00,27.0,12.0,29.89,SSW,200,6.0,-999.0,54,-99.99,,,-99.99,,2013-01-07 16:22:00,
2013-01-07 09:33:00,27.0,12.0,29.89,SSW,200,6.0,-999.0,54,-99.99,,,-99.99,,2013-01-07 16:33:00,
2013-01-07 09:42:00,27.0,12.0,29.89,SSW,200,6.0,-999.0,54,-99.99,,,-99.99,,2013-01-07 16:42:00,
2013-01-07 09:52:00,27.0,12.0,29.89,SSW,200,7.0,-999.0,54,-99.99,,,-99.99,,2013-01-07 16:52:00,
2013-01-07 10:02:00,27.0,12.0,29.89,SSW,200,7.0,-999.0,54,-99.99,,,-99.99,,2013-01-07 17:02:00,
2013-01-07 10:12:00,28.0,14.0,29.88,SSW,200,8.0,-999.0,54,-99.99,,,-99.99,,2013-01-07 17:12:00,
2013-01-07 10:22:00,28.0,14.0,29.88,SSW,200,8.0,-999.0,54,-99.99,,,-99.99,,2013-01-07 17:22:00,
2013-01-07 10:32:00,30.0,14.0,29.88,SSW,200,8.0,-999.0,50,-99.99,,,-99.99,,2013-01-07 17:32:00,
2013-01-07 10:42:00,30.0,14.0,29.88,SSW,200,8.0,-999.0,50,-99.99,,,-99.99,,2013-01-07 17:42:00,
2013-01-07 10:52:00,30.0,14.0,29.88,SSW,200,8.0,-999.0,50,-99.99,,,-99.99,,2013-01-07 17:52:00,
2013-01-07 11:02:00,30.0,14.0,29.88,SSW,200,8.0,-999.0,50,-99.99,,,-99.99,,2013-01-07 18:02:00,
2013-01-07 11:12:00,34.0,16.0,29.87,SSW,200,6.0,-999.0,47,-99.99,,,-99.99,,2013-01-07 18:12:00,
2013-01-07 11:23:00,34.0,16.0,29.87,SSW,200,6.0,-999.0,47,-99.99,,,-99.99,,2013-01-07 18:23:00,
2013-01-07 11:32:00,34.0,16.0,29.86,SSW,200,5.0,-999.0,47,-99.99,,,-99.99,,2013-01-07 18:32:00,
2013-01-07 11:42:00,34.0,16.0,29.86,SSW,200,5.0,-999.0,47,-99.99,,,-99.99,,2013-01-07 18:42:00,
2013-01-07 11:52:00,36.0,16.0,29.85,SSW,200,7.0,-999.0,43,-99.99,,,-99.99,,2013-01-07 18:52:00,
2013-01-07 12:02:00,36.0,16.0,29.85,SSW,200,7.0,-999.0,43,-99.99,,,-99.99,,2013-01-07 19:02:00,
2013-01-07 12:12:00,36.0,16.0,29.84,SSW,200,6.0,-999.0,43,-99.99,,,-99.99,,2013-01-07 19:12:00,
2013-01-07 12:22:00,36.0,16.0,29.84,SSW,200,6.0,-999.0,43,-99.99,,,-99.99,,2013-01-07 19:22:00,
2013-01-07 12:33:00,37.0,18.0,29.82,North,0,0.0,-999.0,44,-99.99,,,-99.99,,2013-01-07 19:33:00,
2013-01-07 12:42:00,37.0,18.0,29.82,North,0,0.0,-999.0,44,-99.99,,,-99.99,,2013-01-07 19:42:00,
2013-01-07 12:52:00,37.0,16.0,29.81,North,0,0.0,-999.0,40,-99.99,,,-99.99,,2013-01-07 19:52:00,
2013-01-07 13:02:00,37.0,16.0,29.81,North,0,0.0,-999.0,40,-99.99,,,-99.99,,2013-01-07 20:02:00,
2013-01-07 13:11:00,37.0,16.0,29.80,SSW,200,7.0,-999.0,40,-99.99,,,-99.99,,2013-01-07 20:11:00,
2013-01-07 13:22:00,37.0,16.0,29.80,SSW,200,7.0,-999.0,40,-99.99,,,-99.99,,2013-01-07 20:22:00,
2013-01-07 13:32:00,37.0,16.0,29.79,South,190,5.0,-999.0,40,-99.99,,,-99.99,,2013-01-07 20:32:00,
2013-01-07 13:42:00,37.0,16.0,29.79,South,190,5.0,-999.0,40,-99.99,,,-99.99,,2013-01-07 20:42:00,
2013-01-07 13:52:00,39.0,18.0,29.78,South,190,8.0,-999.0,41,-99.99,,,-99.99,,2013-01-07 20:52:00,
2013-01-07 14:02:00,39.0,18.0,29.78,South,190,8.0,-999.0,41,-99.99,,,-99.99,,2013-01-07 21:02:00,
2013-01-07 14:11:00,39.0,18.0,29.77,South,180,7.0,-999.0,41,-99.99,,,-99.99,,2013-01-07 21:11:00,
2013-01-07 14:22:00,39.0,18.0,29.77,South,180,7.0,-999.0,41,-99.99,,,-99.99,,2013-01-07 21:22:00,
2013-01-07 14:32:00,43.0,18.0,29.76,South,190,10.0,-999.0,35,-99.99,,,-99.99,,2013-01-07 21:32:00,
2013-01-07 14:42:00,43.0,18.0,29.76,South,190,10.0,-999.0,35,-99.99,,,-99.99,,2013-01-07 21:42:00,
2013-01-07 14:52:00,43.0,16.0,29.76,South,190,14.0,-999.0,33,-99.99,,,-99.99,,2013-01-07 21:52:00,
2013-01-07 15:02:00,43.0,16.0,29.76,South,190,14.0,-999.0,33,-99.99,,,-99.99,,2013-01-07 22:02:00,
2013-01-07 15:11:00,43.0,16.0,29.76,SSW,210,12.0,16.0,33,-99.99,,,-99.99,,2013-01-07 22:11:00,
2013-01-07 15:22:00,43.0,16.0,29.76,SSW,210,12.0,16.0,33,-99.99,,,-99.99,,2013-01-07 22:22:00,
2013-01-07 15:33:00,41.0,16.0,29.75,SSW,200,12.0,16.0,35,-99.99,,,-99.99,,2013-01-07 22:33:00,
2013-01-07 15:42:00,41.0,16.0,29.75,SSW,200,12.0,16.0,35,-99.99,,,-99.99,,2013-01-07 22:42:00,
2013-01-07 15:52:00,41.0,16.0,29.75,SSW,200,9.0,-999.0,35,-99.99,,,-99.99,,2013-01-07 22:52:00,
2013-01-07 16:02:00,41.0,16.0,29.75,SSW,200,9.0,-999.0,35,-99.99,,,-99.99,,2013-01-07 23:02:00,
2013-01-07 16:11:00,39.0,16.0,29.74,SSW,200,7.0,-999.0,38,-99.99,,,-99.99,,2013-01-07 23:11:00,
2013-01-07 16:22:00,39.0,16.0,29.74,SSW,200,7.0,-999.0,38,-99.99,,,-99.99,,2013-01-07 23:22:00,
2013-01-07 16:32:00,37.0,16.0,29.74,SSW,200,9.0,-999.0,40,-99.99,,,-99.99,,2013-01-07 23:32:00,
2013-01-07 16:42:00,37.0,16.0,29.74,SSW,200,9.0,-999.0,40,-99.99,,,-99.99,,2013-01-07 23:42:00,
2013-01-07 16:52:00,37.0,18.0,29.74,SSW,200,8.0,-999.0,44,-99.99,,,-99.99,,2013-01-07 23:52:00,
2013-01-07 17:02:00,37.0,18.0,29.74,SSW,200,8.0,-999.0,44,-99.99,,,-99.99,,2013-01-08 00:02:00,
2013-01-07 17:12:00,37.0,18.0,29.74,SSW,200,8.0,-999.0,44,-99.99,,,-99.99,,2013-01-08 00:12:00,
2013-01-07 17:22:00,37.0,18.0,29.74,SSW,200,8.0,-999.0,44,-99.99,,,-99.99,,2013-01-08 00:22:00,
2013-01-07 17:32:00,37.0,18.0,29.73,SSW,210,7.0,-999.0,44,-99.99,,,-99.99,,2013-01-08 00:32:00,
2013-01-07 17:42:00,37.0,18.0,29.73,SSW,210,7.0,-999.0,44,-99.99,,,-99.99,,2013-01-08 00:42:00,
2013-01-07 17:52:00,37.0,16.0,29.73,SW,220,12.0,16.0,40,-99.99,,,-99.99,,2013-01-08 00:52:00,
2013-01-07 18:02:00,37.0,16.0,29.73,SW,220,12.0,16.0,40,-99.99,,,-99.99,,2013-01-08 01:02:00,
2013-01-07 18:11:00,37.0,16.0,29.73,SSW,210,12.0,16.0,40,-99.99,,,-99.99,,2013-01-08 01:11:00,
2013-01-07 18:22:00,37.0,16.0,29.73,SSW,210,12.0,16.0,40,-99.99,,,-99.99,,2013-01-08 01:22:00,
2013-01-07 18:32:00,37.0,18.0,29.72,SSW,210,6.0,-999.0,44,-99.99,,,-99.99,,2013-01-08 01:32:00,
2013-01-07 18:42:00,37.0,18.0,29.72,SSW,210,6.0,-999.0,44,-99.99,,,-99.99,,2013-01-08 01:42:00,
2013-01-07 18:52:00,36.0,16.0,29.72,North,0,0.0,-999.0,43,-99.99,,,-99.99,,2013-01-08 01:52:00,
2013-01-07 19:02:00,36.0,16.0,29.72,North,0,0.0,-999.0,43,-99.99,,,-99.99,,2013-01-08 02:02:00,
2013-01-07 19:11:00,36.0,16.0,29.72,North,0,0.0,-999.0,43,-99.99,,,-99.99,,2013-01-08 02:11:00,
2013-01-07 19:22:00,36.0,16.0,29.72,North,0,0.0,-999.0,43,-99.99,,,-99.99,,2013-01-08 02:22:00,
2013-01-07 19:32:00,36.0,16.0,29.71,North,0,0.0,-999.0,43,-99.99,,,-99.99,,2013-01-08 02:32:00,
2013-01-07 19:43:00,36.0,16.0,29.71,North,0,0.0,-999.0,43,-99.99,,,-99.99,,2013-01-08 02:43:00,
2013-01-07 19:53:00,36.0,16.0,29.70,SSW,210,9.0,-999.0,43,-99.99,,,-99.99,,2013-01-08 02:53:00,
2013-01-07 20:02:00,36.0,16.0,29.70,SSW,210,9.0,-999.0,43,-99.99,,,-99.99,,2013-01-08 03:02:00,
2013-01-07 20:12:00,34.0,18.0,29.70,South,190,7.0,-999.0,51,-99.99,,,-99.99,,2013-01-08 03:12:00,
2013-01-07 20:22:00,34.0,18.0,29.70,South,190,7.0,-999.0,51,-99.99,,,-99.99,,2013-01-08 03:22:00,
2013-01-07 20:32:00,34.0,18.0,29.69,South,190,7.0,-999.0,51,-99.99,,,-99.99,,2013-01-08 03:32:00,
2013-01-07 20:42:00,34.0,18.0,29.69,South,190,7.0,-999.0,51,-99.99,,,-99.99,,2013-01-08 03:42:00,
2013-01-07 20:52:00,34.0,18.0,29.68,South,190,8.0,-999.0,51,-99.99,,,-99.99,,2013-01-08 03:52:00,
2013-01-07 21:02:00,34.0,18.0,29.68,South,190,8.0,-999.0,51,-99.99,,,-99.99,,2013-01-08 04:02:00,
2013-01-07 21:11:00,34.0,18.0,29.68,SSW,200,8.0,-999.0,51,-99.99,,,-99.99,,2013-01-08 04:11:00,
2013-01-07 21:22:00,34.0,18.0,29.68,SSW,200,8.0,-999.0,51,-99.99,,,-99.99,,2013-01-08 04:22:00,
2013-01-07 21:32:00,34.0,18.0,29.67,SSW,200,6.0,-999.0,51,-99.99,,,-99.99,,2013-01-08 04:32:00,
2013-01-07 21:42:00,34.0,18.0,29.67,SSW,200,6.0,-999.0,51,-99.99,,,-99.99,,2013-01-08 04:42:00,
2013-01-07 21:52:00,34.0,16.0,29.66,North,0,0.0,-999.0,47,-99.99,,,-99.99,,2013-01-08 04:52:00,
2013-01-07 22:03:00,34.0,16.0,29.66,North,0,0.0,-999.0,47,-99.99,,,-99.99,,2013-01-08 05:03:00,
2013-01-07 22:12:00,34.0,16.0,29.66,South,170,12.0,17.0,47,-99.99,,,-99.99,,2013-01-08 05:12:00,
2013-01-07 22:22:00,34.0,16.0,29.66,South,170,12.0,17.0,47,-99.99,,,-99.99,,2013-01-08 05:22:00,
2013-01-07 22:32:00,36.0,16.0,29.66,South,190,10.0,-999.0,43,-99.99,,,-99.99,,2013-01-08 05:32:00,
2013-01-07 22:42:00,36.0,16.0,29.66,South,190,10.0,-999.0,43,-99.99,,,-99.99,,2013-01-08 05:42:00,
2013-01-07 22:52:00,36.0,16.0,29.67,South,190,12.0,20.0,43,-99.99,,,-99.99,,2013-01-08 05:52:00,
2013-01-07 23:02:00,36.0,16.0,29.67,South,190,12.0,20.0,43,-99.99,,,-99.99,,2013-01-08 06:02:00,
2013-01-07 23:11:00,39.0,18.0,29.67,SSW,200,10.0,25.0,41,-99.99,,,-99.99,,2013-01-08 06:11:00,
2013-01-07 23:22:00,39.0,18.0,29.67,SSW,200,10.0,25.0,41,-99.99,,,-99.99,,2013-01-08 06:22:00,
2013-01-07 23:32:00,37.0,18.0,29.68,SSW,200,15.0,-999.0,44,-99.99,,,-99.99,,2013-01-08 06:32:00,
2013-01-07 23:42:00,37.0,18.0,29.68,SSW,200,15.0,-999.0,44,-99.99,,,-99.99,,2013-01-08 06:42:00,
2013-01-07 23:52:00,36.0,16.0,29.68,North,0,0.0,-999.0,43,-99.99,,,-99.99,,2013-01-08 06:52:00,